Flight Track Log - Related Links

Times and Time Zones

All times are in EDT time to prevent confusion due to time zone crossing. See the RPA3228 flight status page for this flight to view local times or setup timezone preferences in your user account.


Time Position Orientation Groundspeed Altitude Reporting Facility
EDT Latitude Longitude Course Direction KTS MPH feet Rate Location/Type
Mon 10:55:49 AM 38.9000 -77.0833 81° East 195 224 2,400  Level Potomac TRACON
Mon 10:56:49 AM 38.9500 -77.1167 333° Northwest 255 293 4,800 2,650 Climbing Potomac TRACON
Mon 10:57:00 AM 39.0015 -76.5970 57° Northeast  Level FlightAware Approximate
Mon 10:57:49 AM 39.0333 -77.1000 North 273 314 7,700  Level Potomac TRACON
Mon 10:58:00 AM 39.0593 -76.4517 63° Northeast  Level FlightAware Approximate
Mon 10:59:00 AM 39.1167 -76.3070 90° East  Level FlightAware Approximate
Mon 10:59:54 AM 39.0769 -76.9125 73° East 273 314 12,400  Level Washington Center
Mon 11:00:00 AM 39.1556 -76.1606 83° East  Level FlightAware Approximate
Mon 11:00:54 AM 39.0908 -76.7925 81° East 304 350 15,200  Level Washington Center
Mon 11:01:00 AM 39.1711 -75.9981 81° East  Level FlightAware Approximate
Mon 11:01:54 AM 39.1025 -76.6642 83° East 336 387 17,900  Level Washington Center
Mon 11:02:54 AM 39.1161 -76.5386 82° East 347 399 19,900 2,150 Climbing Washington Center
Mon 11:03:54 AM 39.1294 -76.4078 82° East 362 417 22,200 1,550 Climbing Washington Center
Mon 11:04:54 AM 39.1450 -76.2714 82° East 372 428 23,000 400 Climbing Washington Center
Mon 11:05:54 AM 39.1644 -76.1297 80° East 385 443 23,000  Level Washington Center
Mon 11:06:54 AM 39.1817 -75.9906 81° East 390 449 23,000  Level Washington Center
Mon 11:07:54 AM 39.2131 -75.8567 73° East 390 449 23,000 600 Level Washington Center
Mon 11:08:54 AM 39.2925 -75.7525 45° Northeast 384 442 24,200 1,400 Climbing Washington Center
Mon 11:09:54 AM 39.3761 -75.6481 44° Northeast 398 458 25,800 1,400 Climbing Washington Center
Mon 11:10:54 AM 39.4636 -75.5325 46° Northeast 419 482 27,000 1,150 Climbing Washington Center
Mon 11:11:54 AM 39.5531 -75.4139 46° Northeast 438 504 28,100 1,100 Climbing Washington Center
Mon 11:12:54 AM 39.6506 -75.2869 45° Northeast 466 536 29,200 1,100 Climbing Washington Center
Mon 11:13:54 AM 39.7544 -75.1353 48° Northeast 498 573 30,300 1,100 Climbing Washington Center
Mon 11:14:54 AM 39.8456 -75.0106 46° Northeast 520 598 31,400 1,256 Climbing Washington Center
Mon 11:16:03 AM 39.9642 -74.8389 48° Northeast 537 618 33,000 738 Climbing New York Center
Mon 11:17:04 AM 40.0494 -74.7192 47° Northeast 513 590 33,000  Level New York Center
Mon 11:18:04 AM 40.1525 -74.5675 48° Northeast 513 590 33,000  Level New York Center
Mon 11:19:04 AM 40.2439 -74.4500 44° Northeast 506 582 33,000  Level New York Center
Mon 11:20:05 AM 40.3514 -74.3358 39° Northeast 494 568 33,000  Level New York Center
Mon 11:21:05 AM 40.4592 -74.2217 39° Northeast 494 568 33,000  Level New York Center
Mon 11:23:27 AM 40.6472 -73.8597 56° Northeast 473 544 33,000  Level Boston Center
Mon 11:24:27 AM 40.7689 -73.7856 25° Northeast 463 533 33,000  Level Boston Center
Mon 11:25:27 AM 40.8919 -73.7881 359° North 425 489 33,000  Level Boston Center
Mon 11:26:27 AM 41.0169 -73.7936 358° North 430 495 33,000  Level Boston Center
Mon 11:27:27 AM 41.1397 -73.7989 358° North 430 495 33,000  Level Boston Center
Mon 11:28:27 AM 41.2647 -73.8042 358° North 440 506 33,000  Level Boston Center
Mon 11:29:27 AM 41.3875 -73.8125 357° North 440 506 33,000  Level Boston Center
Mon 11:30:27 AM 41.5128 -73.7931 North 440 506 33,000  Level Boston Center
Mon 11:31:27 AM 41.6381 -73.7678 North 446 513 33,000  Level Boston Center
Mon 11:32:27 AM 41.7614 -73.7425 North 446 513 33,000  Level Boston Center
Mon 11:33:27 AM 41.8806 -73.7200 North 435 501 33,000  Level Boston Center
Mon 11:34:27 AM 42.0017 -73.6944 North 435 501 33,000  Level Boston Center
Mon 11:35:27 AM 42.1292 -73.6633 10° North 445 512 33,000 -950 Level Boston Center
Mon 11:36:27 AM 42.2483 -73.6350 10° North 445 512 31,100 -1,850 Descending Boston Center
Mon 11:37:27 AM 42.3589 -73.6203 North 422 486 29,300 -1,050 Descending Boston Center
Mon 11:38:27 AM 42.4694 -73.5969 North 406 467 29,000 -150 Descending Boston Center
Mon 11:39:27 AM 42.5761 -73.5736 North 401 461 29,000  Level Boston Center
Mon 11:40:27 AM 42.6867 -73.5531 North 396 456 29,000  Level Boston Center
Mon 11:41:27 AM 42.7953 -73.5294 North 391 450 29,000  Level Boston Center
Mon 11:42:27 AM 42.8872 -73.5056 11° North 384 442 29,000 -350 Level Boston Center
Mon 11:43:27 AM 42.9958 -73.4733 12° North 384 442 28,300 -1,550 Descending Boston Center
Mon 11:44:27 AM 43.0964 -73.4125 24° Northeast 384 442 25,900 -2,150 Descending Boston Center
Mon 11:45:27 AM 43.1992 -73.3544 22° Northeast 384 442 24,000 -950 Descending Boston Center
Mon 11:46:27 AM 43.2953 -73.2986 23° Northeast 389 448 24,000 -800 Level Boston Center
Mon 11:47:27 AM 43.3917 -73.2400 24° Northeast 379 436 22,400 -2,050 Descending Boston Center
Mon 11:48:27 AM 43.5003 -73.2042 13° North 373 429 19,900 -2,300 Descending Boston Center
Mon 11:49:27 AM 43.5983 -73.1969 North 358 412 17,800 -1,700 Descending Boston Center
Mon 11:50:27 AM 43.6878 -73.1953 North 340 391 16,500 -1,650 Descending Boston Center
Mon 11:51:27 AM 43.7775 -73.1906 North 323 372 14,500 -1,950 Descending Boston Center
Mon 11:52:27 AM 43.8650 -73.1858 North 317 365 12,600 -1,850 Descending Boston Center
Mon 11:53:27 AM 43.9506 -73.1811 North 306 352 10,800 -1,850 Descending Boston Center
Mon 11:54:27 AM 44.0256 -73.1764 North 306 352 8,900 -1,950 Descending Boston Center
Mon 11:55:27 AM 44.1047 -73.1744 North 295 339 6,900 -1,850 Descending Boston Center
Mon 11:56:27 AM 44.1817 -73.1928 350° North 283 326 5,200 -1,350 Descending Boston Center
Mon 11:57:27 AM 44.2378 -73.2253 337° Northwest 260 299 4,200 -1,050 Descending Boston Center
Mon 11:58:27 AM 44.3022 -73.2639 337° Northwest 227 261 3,100 -600 Descending Boston Center
Mon 11:59:27 AM 44.3603 -73.2994 336° Northwest 227 261 3,000 -350 Descending Boston Center
Mon 12:00:27 PM 44.4228 -73.3006 359° North 221 254 2,400 -500 Descending Boston Center
Mon 12:01:27 PM 44.4792 -73.2897 North 215 247 2,000 -400 Descending Boston Center

Login

Don't have an account? Register now (free) for customized features, flight alerts, and more!